createdAt,value
2022-09-09T00:01:38.085Z,100.00
2022-09-09T00:04:37.650Z,100.00
2022-09-09T00:07:53.558Z,100.00
2022-09-09T00:11:02.615Z,100.00
2022-09-09T00:14:05.259Z,100.00
2022-09-09T00:17:13.041Z,100.00
2022-09-09T00:20:20.029Z,100.00
2022-09-09T00:23:33.669Z,100.00
2022-09-09T00:26:41.378Z,100.00
2022-09-09T00:29:57.039Z,100.00
2022-09-09T00:33:03.777Z,100.00
2022-09-09T00:36:03.189Z,100.00
2022-09-09T00:39:02.690Z,100.00
2022-09-09T00:42:19.333Z,100.00
2022-09-09T00:45:16.064Z,100.00
2022-09-09T00:48:14.384Z,100.00
2022-09-09T00:51:25.324Z,100.00
2022-09-09T00:54:43.242Z,100.00
2022-09-09T00:57:41.934Z,100.00
2022-09-09T01:00:50.185Z,100.00
2022-09-09T01:03:56.814Z,100.00
2022-09-09T01:07:13.319Z,100.00
2022-09-09T01:10:50.265Z,100.00
2022-09-09T01:13:53.317Z,100.00
2022-09-09T01:16:51.961Z,100.00
2022-09-09T01:20:24.823Z,100.00
2022-09-09T01:24:05.405Z,100.00
2022-09-09T01:27:08.693Z,100.00
2022-09-09T01:30:16.742Z,100.00
2022-09-09T01:33:18.910Z,100.00
2022-09-09T01:36:34.696Z,100.00
2022-09-09T01:39:33.071Z,100.00
2022-09-09T01:42:29.964Z,100.00
2022-09-09T01:45:27.216Z,100.00
2022-09-09T01:48:26.044Z,100.00
2022-09-09T01:51:23.665Z,100.00
2022-09-09T01:54:23.311Z,100.00
2022-09-09T01:57:54.355Z,100.00
2022-09-09T02:01:19.394Z,100.00
2022-09-09T02:04:40.991Z,100.00
2022-09-09T02:07:50.365Z,100.00
2022-09-09T02:10:58.772Z,100.00
2022-09-09T02:14:24.722Z,100.00
2022-09-09T02:17:37.262Z,100.00
2022-09-09T02:20:35.824Z,100.00
2022-09-09T02:23:35.231Z,100.00
2022-09-09T02:26:34.873Z,100.00
2022-09-09T02:29:42.263Z,100.00
2022-09-09T02:32:40.743Z,100.00
2022-09-09T02:35:39.008Z,100.00
2022-09-09T02:38:42.678Z,100.00
2022-09-09T02:41:42.331Z,100.00
2022-09-09T02:44:39.319Z,100.00
2022-09-09T02:48:23.784Z,100.00
2022-09-09T02:51:53.062Z,100.00
2022-09-09T02:54:56.517Z,100.00
2022-09-09T02:57:55.030Z,100.00
2022-09-09T03:00:54.060Z,100.00
2022-09-09T03:03:51.030Z,100.00
2022-09-09T03:06:48.504Z,100.00
2022-09-09T03:09:46.546Z,100.00
2022-09-09T03:12:43.912Z,100.00
2022-09-09T03:15:40.832Z,100.00
2022-09-09T03:18:37.691Z,100.00
2022-09-09T03:21:34.548Z,100.00
2022-09-09T03:24:31.427Z,100.00
2022-09-09T03:27:28.316Z,100.00
2022-09-09T03:30:27.590Z,100.00
2022-09-09T03:33:24.634Z,100.00
2022-09-09T03:36:21.483Z,100.00
2022-09-09T03:39:18.301Z,100.00
2022-09-09T03:42:19.146Z,100.00
2022-09-09T03:45:16.271Z,100.00
2022-09-09T03:48:13.108Z,100.00
2022-09-09T03:51:09.913Z,100.00
2022-09-09T03:54:09.221Z,100.00
2022-09-09T03:57:06.269Z,100.00
2022-09-09T04:00:08.890Z,100.00
2022-09-09T04:03:06.988Z,100.00
2022-09-09T04:06:07.277Z,100.00
2022-09-09T04:09:04.098Z,100.00
2022-09-09T04:12:00.934Z,100.00
2022-09-09T04:14:57.930Z,100.00
2022-09-09T04:17:54.726Z,100.00
2022-09-09T04:20:53.685Z,100.00
2022-09-09T04:23:50.515Z,100.00
2022-09-09T04:26:48.133Z,100.00
2022-09-09T04:29:45.081Z,100.00
2022-09-09T04:32:42.978Z,100.00
2022-09-09T04:35:44.519Z,100.00
2022-09-09T04:38:41.397Z,100.00
2022-09-09T04:41:38.719Z,100.00
2022-09-09T04:44:35.590Z,100.00
2022-09-09T04:47:32.847Z,100.00
2022-09-09T04:50:29.709Z,100.00
2022-09-09T04:53:27.216Z,100.00
2022-09-09T04:56:24.467Z,100.00
2022-09-09T04:59:22.658Z,100.00
2022-09-09T05:02:19.704Z,100.00
2022-09-09T05:05:17.568Z,100.00
2022-09-09T05:08:14.356Z,100.00
2022-09-09T05:11:26.754Z,100.00
2022-09-09T05:14:23.631Z,100.00
2022-09-09T05:17:20.559Z,100.00
2022-09-09T05:20:17.675Z,100.00
2022-09-09T05:23:14.552Z,100.00
2022-09-09T05:26:19.506Z,100.00
2022-09-09T05:29:20.216Z,100.00
2022-09-09T05:32:17.503Z,100.00
2022-09-09T05:35:14.476Z,100.00
2022-09-09T05:38:11.263Z,100.00
2022-09-09T05:41:09.365Z,100.00
2022-09-09T05:44:07.150Z,100.00
2022-09-09T05:47:04.469Z,100.00
2022-09-09T05:50:01.314Z,100.00
2022-09-09T05:52:58.097Z,100.00
2022-09-09T05:56:15.161Z,100.00
2022-09-09T05:59:13.528Z,100.00
2022-09-09T06:02:10.759Z,100.00
2022-09-09T06:05:09.382Z,100.00
2022-09-09T06:08:06.193Z,100.00
2022-09-09T06:11:07.897Z,100.00
2022-09-09T06:14:05.538Z,100.00
2022-09-09T06:17:03.402Z,100.00
2022-09-09T06:20:00.207Z,100.00
2022-09-09T06:22:56.987Z,100.00
2022-09-09T06:26:12.953Z,100.00
2022-09-09T06:29:10.715Z,100.00
2022-09-09T06:32:09.561Z,100.00
2022-09-09T06:35:07.127Z,100.00
2022-09-09T06:38:04.605Z,100.00
2022-09-09T06:41:02.764Z,100.00
2022-09-09T06:43:59.632Z,100.00
2022-09-09T06:46:56.444Z,100.00
2022-09-09T06:49:53.650Z,100.00
2022-09-09T06:52:50.426Z,100.00
2022-09-09T06:55:47.813Z,100.00
2022-09-09T06:58:45.115Z,100.00
2022-09-09T07:01:53.613Z,100.00
2022-09-09T07:04:52.590Z,100.00
2022-09-09T07:07:49.417Z,100.00
2022-09-09T07:10:46.198Z,100.00
2022-09-09T07:13:43.169Z,100.00
2022-09-09T07:16:40.431Z,100.00
2022-09-09T07:19:38.150Z,100.00
2022-09-09T07:22:34.950Z,100.00
2022-09-09T07:25:31.781Z,100.00
2022-09-09T07:28:29.923Z,100.00
2022-09-09T07:31:31.764Z,100.00
2022-09-09T07:34:28.736Z,100.00
2022-09-09T07:37:25.563Z,100.00
2022-09-09T07:40:23.157Z,100.00
2022-09-09T07:43:20.252Z,100.00
2022-09-09T07:46:20.398Z,100.00
2022-09-09T07:49:22.793Z,100.00
2022-09-09T07:52:23.299Z,100.00
2022-09-09T07:55:21.365Z,100.00
2022-09-09T07:58:18.171Z,100.00
2022-09-09T08:01:29.587Z,100.00
2022-09-09T08:04:29.015Z,100.00
2022-09-09T08:07:25.907Z,100.00
2022-09-09T08:10:22.943Z,100.00
2022-09-09T08:13:20.156Z,100.00
2022-09-09T08:16:22.843Z,100.00
2022-09-09T08:19:19.696Z,100.00
2022-09-09T08:22:16.493Z,100.00
2022-09-09T08:25:13.503Z,100.00
2022-09-09T08:28:11.213Z,100.00
2022-09-09T08:31:17.535Z,100.00
2022-09-09T08:34:16.026Z,100.00
2022-09-09T08:37:12.854Z,100.00
2022-09-09T08:40:34.940Z,100.00
2022-09-09T08:43:33.466Z,100.00
2022-09-09T08:47:08.419Z,100.00
2022-09-09T08:50:39.526Z,100.00
2022-09-09T08:53:48.492Z,100.00
2022-09-09T08:56:45.533Z,100.00
2022-09-09T08:59:42.333Z,100.00
2022-09-09T09:03:06.840Z,100.00
2022-09-09T09:06:31.916Z,100.00
2022-09-09T09:09:46.905Z,100.00
2022-09-09T09:12:45.847Z,100.00
2022-09-09T09:15:45.302Z,100.00
2022-09-09T09:18:43.240Z,100.00
2022-09-09T09:21:45.042Z,100.00
2022-09-09T09:24:44.770Z,100.00
2022-09-09T09:28:11.421Z,100.00
2022-09-09T09:31:12.465Z,100.00
2022-09-09T09:34:12.064Z,100.00
2022-09-09T09:37:29.414Z,100.00
2022-09-09T09:40:26.293Z,100.00
2022-09-09T09:43:36.023Z,100.00
2022-09-09T09:46:33.697Z,100.00
2022-09-09T09:49:30.602Z,100.00
2022-09-09T09:52:33.151Z,100.00
2022-09-09T09:55:34.558Z,100.00
2022-09-09T09:58:51.098Z,100.00
2022-09-09T10:01:48.183Z,100.00
2022-09-09T10:04:48.747Z,100.00
2022-09-09T10:07:48.979Z,100.00
2022-09-09T10:10:57.619Z,100.00
2022-09-09T10:14:21.920Z,100.00
2022-09-09T10:17:36.708Z,100.00
2022-09-09T10:20:47.283Z,100.00
2022-09-09T10:24:24.066Z,100.00
2022-09-09T10:28:06.317Z,100.00
2022-09-09T10:31:26.168Z,100.00
2022-09-09T10:35:02.492Z,100.00
2022-09-09T10:38:15.272Z,100.00
2022-09-09T10:41:43.338Z,100.00
2022-09-09T10:45:02.825Z,100.00
2022-09-09T10:48:27.785Z,100.00
2022-09-09T10:51:42.486Z,100.00
2022-09-09T10:55:04.011Z,100.00
2022-09-09T10:58:05.539Z,100.00
2022-09-09T11:01:17.030Z,100.00
2022-09-09T11:04:27.968Z,100.00
2022-09-09T11:07:40.362Z,100.00
2022-09-09T11:11:03.451Z,100.00
2022-09-09T11:14:43.988Z,100.00
2022-09-09T11:17:51.432Z,100.00
2022-09-09T11:20:57.585Z,100.00
2022-09-09T11:24:01.993Z,100.00
2022-09-09T11:27:22.391Z,100.00
2022-09-09T11:30:57.602Z,100.00
2022-09-09T11:34:15.781Z,100.00
2022-09-09T11:37:47.569Z,100.00
2022-09-09T11:40:44.976Z,100.00
2022-09-09T11:43:49.692Z,100.00
2022-09-09T11:46:50.955Z,100.00
2022-09-09T11:49:48.238Z,100.00
2022-09-09T11:52:48.345Z,100.00
2022-09-09T11:55:45.182Z,100.00
2022-09-09T11:58:46.734Z,100.00
2022-09-09T12:01:45.792Z,100.00
2022-09-09T12:04:55.645Z,100.00
2022-09-09T12:07:58.098Z,100.00
2022-09-09T12:10:57.900Z,100.00
2022-09-09T12:14:01.946Z,100.00
2022-09-09T12:17:16.009Z,100.00
2022-09-09T12:20:16.667Z,100.00
2022-09-09T12:23:20.093Z,100.00
2022-09-09T12:26:45.914Z,100.00
2022-09-09T12:30:10.975Z,100.00
2022-09-09T12:33:17.039Z,100.00
2022-09-09T12:36:22.574Z,100.00
2022-09-09T12:39:40.106Z,100.00
2022-09-09T12:42:41.768Z,100.00
2022-09-09T12:45:42.122Z,100.00
2022-09-09T12:48:45.426Z,100.00
2022-09-09T12:51:44.796Z,100.00
2022-09-09T12:54:51.555Z,100.00
2022-09-09T12:57:52.847Z,100.00
2022-09-09T13:00:57.262Z,100.00
2022-09-09T13:03:54.435Z,100.00
2022-09-09T13:06:53.158Z,100.00
2022-09-09T13:09:50.321Z,100.00
2022-09-09T13:12:47.306Z,100.00
2022-09-09T13:15:57.306Z,100.00
2022-09-09T13:18:54.458Z,100.00
2022-09-09T13:21:51.634Z,100.00
2022-09-09T13:24:48.541Z,100.00
2022-09-09T13:28:04.714Z,100.00
2022-09-09T13:31:08.063Z,100.00
2022-09-09T13:34:30.935Z,100.00
2022-09-09T13:37:38.133Z,100.00
2022-09-09T13:40:35.502Z,100.00
2022-09-09T13:43:39.570Z,100.00
2022-09-09T13:46:38.718Z,100.00
2022-09-09T13:49:35.571Z,100.00
2022-09-09T13:52:32.901Z,100.00
2022-09-09T13:55:30.984Z,100.00
2022-09-09T13:58:27.931Z,100.00
2022-09-09T14:01:29.317Z,100.00
2022-09-09T14:04:26.521Z,100.00
2022-09-09T14:07:23.561Z,100.00
2022-09-09T14:10:20.715Z,100.00
2022-09-09T14:13:17.571Z,100.00
2022-09-09T14:16:14.745Z,100.00
2022-09-09T14:19:13.501Z,100.00
2022-09-09T14:22:10.421Z,100.00
2022-09-09T14:25:08.439Z,100.00
2022-09-09T14:28:05.334Z,100.00
2022-09-09T14:31:04.675Z,100.00
2022-09-09T14:34:01.710Z,100.00
2022-09-09T14:36:58.773Z,100.00
2022-09-09T14:39:56.298Z,100.00
2022-09-09T14:42:54.863Z,100.00
2022-09-09T14:45:52.411Z,100.00
2022-09-09T14:48:49.797Z,100.00
2022-09-09T14:51:46.753Z,100.00
2022-09-09T14:54:43.688Z,98.00
2022-09-09T14:57:41.218Z,100.00
2022-09-09T15:00:38.088Z,98.43
2022-09-09T15:03:35.395Z,92.23
2022-09-09T15:06:38.298Z,88.68
2022-09-09T15:09:35.208Z,98.34
2022-09-09T15:12:32.583Z,92.48
2022-09-09T15:15:29.482Z,96.85
2022-09-09T15:18:26.308Z,94.12
2022-09-09T15:21:26.982Z,95.96
2022-09-09T15:24:24.138Z,93.65
2022-09-09T15:27:21.261Z,94.39
2022-09-09T15:30:18.153Z,93.81
2022-09-09T15:33:15.082Z,96.78
2022-09-09T15:36:19.688Z,97.65
2022-09-09T15:39:18.833Z,100.00
2022-09-09T15:42:15.628Z,94.72
2022-09-09T15:45:13.517Z,100.00
2022-09-09T15:48:10.295Z,98.89
2022-09-09T15:51:19.541Z,100.00
2022-09-09T15:54:26.226Z,100.00
2022-09-09T15:57:23.013Z,100.00
2022-09-09T16:00:21.583Z,100.00
2022-09-09T16:03:18.369Z,100.00
2022-09-09T16:06:16.951Z,100.00
2022-09-09T16:09:13.744Z,100.00
2022-09-09T16:12:12.793Z,100.00
2022-09-09T16:15:10.001Z,100.00
2022-09-09T16:18:06.859Z,100.00
2022-09-09T16:21:06.060Z,100.00
2022-09-09T16:24:05.502Z,100.00
2022-09-09T16:27:02.373Z,100.00
2022-09-09T16:29:59.247Z,100.00
2022-09-09T16:32:56.036Z,100.00
2022-09-09T16:35:52.848Z,100.00
2022-09-09T16:38:53.214Z,100.00
2022-09-09T16:41:50.687Z,100.00
2022-09-09T16:44:47.531Z,100.00
2022-09-09T16:47:45.436Z,100.00
2022-09-09T16:50:42.758Z,100.00
2022-09-09T16:53:39.545Z,100.00
2022-09-09T16:56:42.167Z,100.00
2022-09-09T16:59:39.086Z,100.00
2022-09-09T17:02:35.903Z,100.00
2022-09-09T17:05:33.620Z,100.00
2022-09-09T17:08:31.208Z,100.00
2022-09-09T17:11:29.668Z,100.00
2022-09-09T17:14:26.518Z,100.00
2022-09-09T17:17:31.548Z,100.00
2022-09-09T17:20:40.580Z,100.00
2022-09-09T17:23:42.933Z,100.00
2022-09-09T17:26:41.053Z,100.00
2022-09-09T17:29:38.501Z,100.00
2022-09-09T17:32:36.550Z,100.00
2022-09-09T17:35:34.354Z,100.00
2022-09-09T17:38:31.347Z,100.00
2022-09-09T17:41:39.655Z,100.00
2022-09-09T17:44:36.678Z,100.00
2022-09-09T17:47:33.458Z,100.00
2022-09-09T17:50:30.409Z,100.00
2022-09-09T17:53:28.508Z,100.00
2022-09-09T17:56:29.238Z,100.00
2022-09-09T17:59:26.479Z,100.00
2022-09-09T18:02:23.446Z,100.00
2022-09-09T18:05:21.295Z,100.00
2022-09-09T18:08:18.071Z,100.00
2022-09-09T18:11:15.200Z,100.00
2022-09-09T18:14:17.408Z,100.00
2022-09-09T18:17:14.227Z,100.00
2022-09-09T18:20:11.176Z,100.00
2022-09-09T18:23:07.963Z,100.00
2022-09-09T18:26:15.150Z,100.00
2022-09-09T18:29:16.245Z,100.00
2022-09-09T18:32:14.978Z,100.00
2022-09-09T18:35:11.812Z,100.00
2022-09-09T18:38:08.677Z,100.00
2022-09-09T18:41:24.743Z,100.00
2022-09-09T18:44:27.336Z,100.00
2022-09-09T18:47:24.944Z,100.00
2022-09-09T18:50:21.812Z,100.00
2022-09-09T18:53:21.027Z,100.00
2022-09-09T18:56:18.174Z,100.00
2022-09-09T18:59:19.665Z,100.00
2022-09-09T19:02:16.493Z,100.00
2022-09-09T19:05:13.317Z,100.00
2022-09-09T19:08:10.091Z,100.00
2022-09-09T19:11:09.732Z,100.00
2022-09-09T19:14:10.524Z,100.00
2022-09-09T19:17:07.508Z,100.00
2022-09-09T19:20:05.660Z,100.00
2022-09-09T19:23:02.453Z,100.00
2022-09-09T19:26:03.559Z,100.00
2022-09-09T19:29:02.704Z,100.00
2022-09-09T19:32:36.851Z,100.00
2022-09-09T19:35:19.945Z,100.00
2022-09-09T19:38:16.996Z,100.00
2022-09-09T19:41:19.771Z,100.00
2022-09-09T19:44:17.964Z,100.00
2022-09-09T19:47:15.050Z,100.00
2022-09-09T19:50:12.016Z,100.00
2022-09-09T19:53:08.868Z,100.00
2022-09-09T19:56:06.333Z,100.00
2022-09-09T19:59:05.240Z,100.00
2022-09-09T20:02:02.412Z,100.00
2022-09-09T20:04:59.409Z,100.00
2022-09-09T20:07:56.197Z,100.00
2022-09-09T20:10:54.359Z,100.00
2022-09-09T20:13:51.800Z,100.00
2022-09-09T20:16:49.588Z,100.00
2022-09-09T20:19:46.380Z,100.00
2022-09-09T20:22:43.182Z,100.00
2022-09-09T20:25:39.988Z,100.00
2022-09-09T20:28:39.045Z,100.00
2022-09-09T20:31:40.514Z,100.00
2022-09-09T20:34:37.302Z,100.00
2022-09-09T20:37:34.084Z,100.00
2022-09-09T20:40:33.459Z,100.00
2022-09-09T20:43:30.610Z,100.00
2022-09-09T20:46:36.516Z,100.00
2022-09-09T20:49:35.226Z,100.00
2022-09-09T20:52:32.013Z,100.00
2022-09-09T20:55:31.724Z,100.00
2022-09-09T20:58:33.464Z,100.00
2022-09-09T21:01:30.778Z,100.00
2022-09-09T21:04:27.963Z,100.00
2022-09-09T21:07:24.758Z,100.00
2022-09-09T21:10:21.571Z,100.00
2022-09-09T21:13:19.180Z,100.00
2022-09-09T21:16:21.265Z,100.00
2022-09-09T21:19:18.633Z,100.00
2022-09-09T21:22:15.414Z,100.00
2022-09-09T21:25:13.067Z,100.00
2022-09-09T21:28:11.182Z,100.00
2022-09-09T21:31:13.302Z,100.00
2022-09-09T21:34:10.183Z,100.00
2022-09-09T21:37:09.082Z,100.00
2022-09-09T21:40:07.101Z,100.00
2022-09-09T21:43:10.739Z,100.00
2022-09-09T21:46:16.276Z,100.00
2022-09-09T21:49:14.002Z,100.00
2022-09-09T21:52:10.785Z,100.00
2022-09-09T21:55:09.872Z,100.00
2022-09-09T21:58:06.919Z,100.00
2022-09-09T22:01:14.652Z,100.00
2022-09-09T22:04:11.628Z,100.00
2022-09-09T22:07:08.409Z,100.00
2022-09-09T22:10:07.197Z,100.00
2022-09-09T22:13:04.244Z,100.00
2022-09-09T22:16:07.299Z,100.00
2022-09-09T22:19:04.199Z,100.00
2022-09-09T22:22:00.992Z,100.00
2022-09-09T22:24:57.858Z,100.00
2022-09-09T22:27:55.344Z,100.00
2022-09-09T22:30:52.196Z,100.00
2022-09-09T22:33:49.606Z,100.00
2022-09-09T22:36:46.498Z,100.00
2022-09-09T22:39:43.397Z,100.00
2022-09-09T22:42:41.773Z,100.00
2022-09-09T22:45:38.619Z,100.00
2022-09-09T22:48:37.943Z,100.00
2022-09-09T22:51:34.834Z,100.00
2022-09-09T22:54:31.643Z,100.00
2022-09-09T22:57:28.817Z,100.00
2022-09-09T23:00:27.159Z,100.00
2022-09-09T23:03:27.747Z,100.00
2022-09-09T23:06:27.933Z,100.00
2022-09-09T23:09:24.788Z,100.00
2022-09-09T23:12:22.414Z,100.00
2022-09-09T23:15:19.857Z,100.00
2022-09-09T23:18:16.670Z,100.00
2022-09-09T23:21:15.531Z,100.00
2022-09-09T23:24:15.519Z,100.00
2022-09-09T23:27:12.677Z,100.00
2022-09-09T23:30:11.610Z,100.00
2022-09-09T23:33:08.447Z,100.00
2022-09-09T23:36:08.724Z,100.00
2022-09-09T23:39:08.120Z,100.00
2022-09-09T23:42:06.949Z,100.00
2022-09-09T23:45:04.098Z,100.00
2022-09-09T23:48:00.888Z,100.00
2022-09-09T23:50:59.647Z,100.00
2022-09-09T23:54:00.423Z,100.00
2022-09-09T23:56:57.338Z,100.00
2022-09-09T23:59:54.159Z,100.00
